Terminal Aerodrome Forecast
Issued by NWS

Home | Current Version | Previous Version | Text Only | Print | Product List | Glossary On
Versions: 1 2 3 4 5 6 7 8 9 10 11 12 13 14 15 16 17
000
FTUS43 KTOP 310500 CCA
TAFMHK
TAF COR
KMHK 310558Z 3106/0106 19006KT 6SM -SHRA BR OVC040
     FM310700 19006KT 4SM -RA BKN025 OVC035
     FM311000 18006KT 5SM -RA BKN015 OVC027
     FM311600 15009KT 4SM -RA BR OVC007
     FM010100 17004KT 3SM -RA BR OVC004=

USA.gov is the U.S. government's official web portal to all federal, state and local government web resources and services.